Terminal Aerodrome Forecast
Issued by NWS Austin/San Antonio, TX

Home | Current Version | Previous Version | Text Only | Print | Product List | Glossary On
Versions: 1 2 3 4 5 6 7 8 9 10 11 12 13 14 15
000
FTUS44 KEWX 022330
TAFAUS
TAF
KAUS 022330Z 0300/0406 20006KT P6SM FEW060 SCT250
     FM030200 19005KT P6SM FEW250
     FM030900 20004KT 6SM BR SCT012
     FM031400 20005KT P6SM SCT025
     FM031600 16008KT P6SM SCT050
     FM040200 19006KT P6SM SKC=

USA.gov is the U.S. government's official web portal to all federal, state and local government web resources and services.